sensor_id;sensor_type;location;lat;lon;timestamp;pressure;altitude;pressure_sealevel;temperature;humidity
77410;BME280;66481;51.332;22.804;2023-02-03T00:00:46;99765.47;;;-1.46;88.34
77410;BME280;66481;51.332;22.804;2023-02-03T00:05:04;99774.13;;;-1.47;88.63
77410;BME280;66481;51.332;22.804;2023-02-03T00:09:06;99778.47;;;-1.48;88.76
77410;BME280;66481;51.332;22.804;2023-02-03T00:13:07;99785.44;;;-1.50;88.37
77410;BME280;66481;51.332;22.804;2023-02-03T00:17:09;99803.47;;;-1.45;88.18
77410;BME280;66481;51.332;22.804;2023-02-03T00:21:10;99812.13;;;-1.43;87.74
77410;BME280;66481;51.332;22.804;2023-02-03T00:25:11;99810.34;;;-1.41;88.50
77410;BME280;66481;51.332;22.804;2023-02-03T00:29:12;99824.13;;;-1.39;88.57
77410;BME280;66481;51.332;22.804;2023-02-03T00:33:14;99823.22;;;-1.37;87.48
77410;BME280;66481;51.332;22.804;2023-02-03T00:37:15;99824.00;;;-1.33;87.73
77410;BME280;66481;51.332;22.804;2023-02-03T00:41:17;99829.31;;;-1.39;87.52
77410;BME280;66481;51.332;22.804;2023-02-03T00:45:19;99822.28;;;-1.34;87.78
77410;BME280;66481;51.332;22.804;2023-02-03T00:49:20;99817.50;;;-1.53;88.12
77410;BME280;66481;51.332;22.804;2023-02-03T00:53:21;99813.50;;;-1.66;88.61
77410;BME280;66481;51.332;22.804;2023-02-03T00:57:22;99838.69;;;-1.71;89.69
77410;BME280;66481;51.332;22.804;2023-02-03T01:01:23;99830.22;;;-1.81;90.03
77410;BME280;66481;51.332;22.804;2023-02-03T01:05:27;99836.22;;;-1.79;89.60
77410;BME280;66481;51.332;22.804;2023-02-03T01:09:32;99841.56;;;-1.85;90.09
77410;BME280;66481;51.332;22.804;2023-02-03T01:13:34;99836.34;;;-1.83;90.07
77410;BME280;66481;51.332;22.804;2023-02-03T01:17:35;99838.88;;;-1.82;90.02
77410;BME280;66481;51.332;22.804;2023-02-03T01:21:36;99845.97;;;-1.88;90.65
77410;BME280;66481;51.332;22.804;2023-02-03T01:25:37;99845.97;;;-1.88;90.99
77410;BME280;66481;51.332;22.804;2023-02-03T01:29:38;99852.91;;;-1.92;91.00
77410;BME280;66481;51.332;22.804;2023-02-03T01:33:39;99853.84;;;-1.95;90.84
77410;BME280;66481;51.332;22.804;2023-02-03T01:37:40;99861.63;;;-1.95;91.08
77410;BME280;66481;51.332;22.804;2023-02-03T01:41:42;99861.53;;;-1.90;91.21
77410;BME280;66481;51.332;22.804;2023-02-03T01:45:44;99859.75;;;-1.86;91.29
77410;BME280;66481;51.332;22.804;2023-02-03T01:49:51;99853.78;;;-1.92;91.15
77410;BME280;66481;51.332;22.804;2023-02-03T01:53:54;99857.44;;;-2.00;91.51
77410;BME280;66481;51.332;22.804;2023-02-03T01:58:06;99856.25;;;-1.85;91.17
77410;BME280;66481;51.332;22.804;2023-02-03T02:02:08;99846.00;;;-1.90;91.55
77410;BME280;66481;51.332;22.804;2023-02-03T02:06:11;99846.03;;;-1.93;91.60
77410;BME280;66481;51.332;22.804;2023-02-03T02:10:12;99858.88;;;-1.87;91.38
77410;BME280;66481;51.332;22.804;2023-02-03T02:14:13;99844.13;;;-1.83;91.78
77410;BME280;66481;51.332;22.804;2023-02-03T02:18:31;99836.06;;;-1.69;90.80
77410;BME280;66481;51.332;22.804;2023-02-03T02:48:39;99848.84;;;-1.62;90.62
77410;BME280;66481;51.332;22.804;2023-02-03T02:52:43;99849.56;;;-1.55;89.65
77410;BME280;66481;51.332;22.804;2023-02-03T02:56:50;99852.69;;;-1.41;89.72
77410;BME280;66481;51.332;22.804;2023-02-03T03:00:51;99856.81;;;-1.32;89.17
77410;BME280;66481;51.332;22.804;2023-02-03T03:04:52;99867.94;;;-1.25;88.59
77410;BME280;66481;51.332;22.804;2023-02-03T03:09:01;99857.47;;;-1.22;88.55
77410;BME280;66481;51.332;22.804;2023-02-03T03:13:07;99867.88;;;-1.22;87.83
77410;BME280;66481;51.332;22.804;2023-02-03T03:17:10;99871.56;;;-1.33;88.19
77410;BME280;66481;51.332;22.804;2023-02-03T03:21:16;99858.66;;;-1.37;87.96
77410;BME280;66481;51.332;22.804;2023-02-03T03:25:23;99865.53;;;-1.33;87.65
77410;BME280;66481;51.332;22.804;2023-02-03T03:29:31;99866.50;;;-1.39;88.08
77410;BME280;66481;51.332;22.804;2023-02-03T03:33:34;99861.41;;;-1.43;87.90
77410;BME280;66481;51.332;22.804;2023-02-03T03:37:52;99869.19;;;-1.42;88.28
77410;BME280;66481;51.332;22.804;2023-02-03T03:46:26;99868.09;;;-1.31;87.65
77410;BME280;66481;51.332;22.804;2023-02-03T03:50:31;99869.69;;;-1.26;87.90
77410;BME280;66481;51.332;22.804;2023-02-03T03:54:35;99871.38;;;-1.25;87.88
77410;BME280;66481;51.332;22.804;2023-02-03T03:58:39;99869.63;;;-1.23;87.04
77410;BME280;66481;51.332;22.804;2023-02-03T04:02:47;99869.56;;;-1.21;87.14
77410;BME280;66481;51.332;22.804;2023-02-03T04:06:52;99861.44;;;-1.07;86.41
77410;BME280;66481;51.332;22.804;2023-02-03T04:10:54;99866.59;;;-1.06;86.33
77410;BME280;66481;51.332;22.804;2023-02-03T04:14:56;99871.72;;;-1.03;86.41
77410;BME280;66481;51.332;22.804;2023-02-03T04:18:56;99873.50;;;-1.05;86.43
77410;BME280;66481;51.332;22.804;2023-02-03T04:22:58;99873.50;;;-1.05;86.39
77410;BME280;66481;51.332;22.804;2023-02-03T04:26:59;99871.81;;;-1.07;86.80
77410;BME280;66481;51.332;22.804;2023-02-03T04:31:00;99872.63;;;-1.04;86.54
77410;BME280;66481;51.332;22.804;2023-02-03T04:35:02;99871.94;;;-1.10;86.41
77410;BME280;66481;51.332;22.804;2023-02-03T04:39:04;99883.06;;;-1.05;86.10
77410;BME280;66481;51.332;22.804;2023-02-03T04:43:06;99877.97;;;-1.10;86.84
77410;BME280;66481;51.332;22.804;2023-02-03T04:47:07;99887.59;;;-1.15;86.99
77410;BME280;66481;51.332;22.804;2023-02-03T04:51:08;99882.31;;;-1.10;86.06
77410;BME280;66481;51.332;22.804;2023-02-03T04:55:09;99879.69;;;-1.09;86.37
77410;BME280;66481;51.332;22.804;2023-02-03T04:59:10;99885.81;;;-1.13;86.86
77410;BME280;66481;51.332;22.804;2023-02-03T05:03:11;99891.06;;;-1.16;86.69
77410;BME280;66481;51.332;22.804;2023-02-03T05:07:12;99895.41;;;-1.17;86.77
77410;BME280;66481;51.332;22.804;2023-02-03T05:11:13;99892.75;;;-1.14;86.07
77410;BME280;66481;51.332;22.804;2023-02-03T05:15:14;99893.72;;;-1.18;86.15
77410;BME280;66481;51.332;22.804;2023-02-03T05:19:15;99894.63;;;-1.20;85.50
77410;BME280;66481;51.332;22.804;2023-02-03T05:23:17;99897.00;;;-1.11;84.23
77410;BME280;66481;51.332;22.804;2023-02-03T05:27:18;99898.84;;;-1.16;84.99
77410;BME280;66481;51.332;22.804;2023-02-03T05:31:19;99904.13;;;-1.18;84.44
77410;BME280;66481;51.332;22.804;2023-02-03T05:35:20;99900.69;;;-1.21;84.19
77410;BME280;66481;51.332;22.804;2023-02-03T05:39:22;99914.63;;;-1.24;84.69
77410;BME280;66481;51.332;22.804;2023-02-03T05:43:23;99913.75;;;-1.23;83.86
77410;BME280;66481;51.332;22.804;2023-02-03T05:47:25;99913.78;;;-1.24;84.20
77410;BME280;66481;51.332;22.804;2023-02-03T05:51:26;99908.63;;;-1.26;84.53
77410;BME280;66481;51.332;22.804;2023-02-03T05:55:29;99902.53;;;-1.26;84.56
77410;BME280;66481;51.332;22.804;2023-02-03T05:59:30;99906.13;;;-1.32;84.58
77410;BME280;66481;51.332;22.804;2023-02-03T06:03:31;99902.66;;;-1.31;84.28
77410;BME280;66481;51.332;22.804;2023-02-03T06:07:32;99909.53;;;-1.28;83.73
77410;BME280;66481;51.332;22.804;2023-02-03T06:11:34;99897.22;;;-1.20;83.10
77410;BME280;66481;51.332;22.804;2023-02-03T06:15:35;99903.22;;;-1.17;83.54
77410;BME280;66481;51.332;22.804;2023-02-03T06:19:37;99899.53;;;-1.08;83.67
77410;BME280;66481;51.332;22.804;2023-02-03T06:23:38;99902.16;;;-1.09;83.97
77410;BME280;66481;51.332;22.804;2023-02-03T06:27:39;99903.88;;;-1.07;83.41
77410;BME280;66481;51.332;22.804;2023-02-03T06:31:41;99905.56;;;-1.06;84.22
77410;BME280;66481;51.332;22.804;2023-02-03T06:35:42;99906.53;;;-1.10;85.40
77410;BME280;66481;51.332;22.804;2023-02-03T06:39:43;99909.94;;;-1.08;84.27
77410;BME280;66481;51.332;22.804;2023-02-03T06:43:44;99888.22;;;-1.04;84.15
77410;BME280;66481;51.332;22.804;2023-02-03T06:47:45;99889.91;;;-1.03;84.38
77410;BME280;66481;51.332;22.804;2023-02-03T06:51:46;99900.16;;;-0.97;84.45
77410;BME280;66481;51.332;22.804;2023-02-03T06:55:48;99893.25;;;-0.98;83.94
77410;BME280;66481;51.332;22.804;2023-02-03T06:59:49;99893.19;;;-0.95;82.79
77410;BME280;66481;51.332;22.804;2023-02-03T07:03:50;99895.38;;;-0.78;83.18
77410;BME280;66481;51.332;22.804;2023-02-03T07:07:51;99880.66;;;-0.79;82.39
77410;BME280;66481;51.332;22.804;2023-02-03T07:11:52;99880.63;;;-0.77;81.57
77410;BME280;66481;51.332;22.804;2023-02-03T07:15:54;99885.78;;;-0.74;81.44
77410;BME280;66481;51.332;22.804;2023-02-03T07:19:55;99889.91;;;-0.67;81.38
77410;BME280;66481;51.332;22.804;2023-02-03T07:23:56;99880.75;;;-0.47;82.40
77410;BME280;66481;51.332;22.804;2023-02-03T07:27:57;99880.44;;;-0.35;83.00
77410;BME280;66481;51.332;22.804;2023-02-03T07:31:58;99867.41;;;-0.33;83.10
77410;BME280;66481;51.332;22.804;2023-02-03T07:36:02;99877.50;;;-0.23;82.42
77410;BME280;66481;51.332;22.804;2023-02-03T07:40:04;99873.88;;;-0.15;82.05
77410;BME280;66481;51.332;22.804;2023-02-03T07:44:05;99864.91;;;-0.05;81.61
77410;BME280;66481;51.332;22.804;2023-02-03T07:53:26;99864.84;;;-0.04;81.35
77410;BME280;66481;51.332;22.804;2023-02-03T07:57:27;99855.06;;;0.06;79.07
77410;BME280;66481;51.332;22.804;2023-02-03T08:01:28;99841.72;;;0.17;76.83
77410;BME280;66481;51.332;22.804;2023-02-03T08:05:31;99845.34;;;0.41;77.36
77410;BME280;66481;51.332;22.804;2023-02-03T08:09:32;99837.84;;;0.60;76.25
77410;BME280;66481;51.332;22.804;2023-02-03T08:13:34;99836.19;;;0.58;74.61
77410;BME280;66481;51.332;22.804;2023-02-03T08:17:35;99833.88;;;1.55;74.79
77410;BME280;66481;51.332;22.804;2023-02-03T08:21:40;99811.66;;;2.83;69.77
77410;BME280;66481;51.332;22.804;2023-02-03T08:25:41;99810.91;;;3.65;65.21
77410;BME280;66481;51.332;22.804;2023-02-03T08:29:43;99788.91;;;5.69;56.65
77410;BME280;66481;51.332;22.804;2023-02-03T08:33:45;99771.41;;;7.13;53.89
77410;BME280;66481;51.332;22.804;2023-02-03T08:37:47;99778.63;;;7.97;53.72
77410;BME280;66481;51.332;22.804;2023-02-03T08:41:48;99761.56;;;8.17;48.65
77410;BME280;66481;51.332;22.804;2023-02-03T08:45:49;99761.13;;;7.96;48.26
77410;BME280;66481;51.332;22.804;2023-02-03T08:49:50;99750.88;;;8.33;47.82
77410;BME280;66481;51.332;22.804;2023-02-03T08:53:51;99750.59;;;7.96;46.93
77410;BME280;66481;51.332;22.804;2023-02-03T08:57:52;99735.75;;;8.64;44.01
77410;BME280;66481;51.332;22.804;2023-02-03T09:01:53;99746.16;;;7.68;43.04
77410;BME280;66481;51.332;22.804;2023-02-03T09:05:54;99750.97;;;6.40;45.11
77410;BME280;66481;51.332;22.804;2023-02-03T09:09:57;99757.88;;;6.89;47.26
77410;BME280;66481;51.332;22.804;2023-02-03T09:13:59;99758.13;;;8.58;43.95
77410;BME280;66481;51.332;22.804;2023-02-03T09:23:15;99752.47;;;5.12;45.71
77410;BME280;66481;51.332;22.804;2023-02-03T09:27:16;99764.09;;;4.35;46.74
77410;BME280;66481;51.332;22.804;2023-02-03T09:31:17;99767.16;;;4.07;47.57
77410;BME280;66481;51.332;22.804;2023-02-03T09:35:19;99751.00;;;2.77;51.04
77410;BME280;66481;51.332;22.804;2023-02-03T09:39:20;99757.66;;;1.72;52.58
77410;BME280;66481;51.332;22.804;2023-02-03T09:47:42;99747.44;;;1.66;51.54
77410;BME280;66481;51.332;22.804;2023-02-03T09:51:56;99725.72;;;2.98;50.60
77410;BME280;66481;51.332;22.804;2023-02-03T09:55:59;99714.94;;;3.06;50.67
77410;BME280;66481;51.332;22.804;2023-02-03T10:00:08;99709.03;;;2.80;51.88
77410;BME280;66481;51.332;22.804;2023-02-03T10:04:36;99706.72;;;2.74;51.41
77410;BME280;66481;51.332;22.804;2023-02-03T10:08:46;99698.09;;;3.52;53.30
77410;BME280;66481;51.332;22.804;2023-02-03T10:17:37;99677.44;;;2.66;52.04
77410;BME280;66481;51.332;22.804;2023-02-03T10:21:44;99674.81;;;2.23;53.53
77410;BME280;66481;51.332;22.804;2023-02-03T10:25:51;99663.22;;;2.08;53.25
77410;BME280;66481;51.332;22.804;2023-02-03T10:30:01;99657.63;;;1.95;52.93
77410;BME280;66481;51.332;22.804;2023-02-03T10:34:15;99652.81;;;1.62;55.27
77410;BME280;66481;51.332;22.804;2023-02-03T10:38:43;99645.78;;;1.17;58.79
77410;BME280;66481;51.332;22.804;2023-02-03T10:42:48;99633.06;;;0.84;57.60
77410;BME280;66481;51.332;22.804;2023-02-03T10:47:36;99624.25;;;0.63;60.68
77410;BME280;66481;51.332;22.804;2023-02-03T10:51:43;99616.16;;;0.46;57.32
77410;BME280;66481;51.332;22.804;2023-02-03T10:55:49;99614.78;;;0.86;56.71
77410;BME280;66481;51.332;22.804;2023-02-03T11:00:06;99593.44;;;1.23;55.63
77410;BME280;66481;51.332;22.804;2023-02-03T11:04:24;99585.38;;;1.07;57.25
77410;BME280;66481;51.332;22.804;2023-02-03T11:08:29;99577.09;;;1.20;53.79
77410;BME280;66481;51.332;22.804;2023-02-03T11:12:31;99556.44;;;1.81;54.72
77410;BME280;66481;51.332;22.804;2023-02-03T11:16:33;99548.81;;;1.55;53.88
77410;BME280;66481;51.332;22.804;2023-02-03T11:20:35;99537.94;;;1.43;54.75
77410;BME280;66481;51.332;22.804;2023-02-03T11:24:38;99539.59;;;2.31;53.69
77410;BME280;66481;51.332;22.804;2023-02-03T11:28:42;99525.28;;;1.78;54.19
77410;BME280;66481;51.332;22.804;2023-02-03T11:32:46;99505.25;;;1.79;54.51
77410;BME280;66481;51.332;22.804;2023-02-03T11:36:48;99501.13;;;1.07;53.57
77410;BME280;66481;51.332;22.804;2023-02-03T11:40:57;99494.34;;;0.79;56.15
77410;BME280;66481;51.332;22.804;2023-02-03T11:45:28;99488.69;;;0.68;56.96
77410;BME280;66481;51.332;22.804;2023-02-03T11:54:17;99464.72;;;0.34;58.58
77410;BME280;66481;51.332;22.804;2023-02-03T12:15:23;99418.81;;;0.08;61.49
77410;BME280;66481;51.332;22.804;2023-02-03T12:32:44;99346.69;;;-0.10;62.08
77410;BME280;66481;51.332;22.804;2023-02-03T12:41:58;99325.69;;;-0.06;62.80
77410;BME280;66481;51.332;22.804;2023-02-03T12:46:04;99310.44;;;0.09;63.80
77410;BME280;66481;51.332;22.804;2023-02-03T12:50:18;99302.53;;;-0.12;62.53
77410;BME280;66481;51.332;22.804;2023-02-03T12:58:49;99282.44;;;0.60;62.84
77410;BME280;66481;51.332;22.804;2023-02-03T13:11:23;99251.63;;;0.05;63.15
77410;BME280;66481;51.332;22.804;2023-02-03T13:15:36;99237.09;;;-0.01;64.21
77410;BME280;66481;51.332;22.804;2023-02-03T13:19:46;99228.69;;;-0.08;65.56
77410;BME280;66481;51.332;22.804;2023-02-03T13:23:48;99220.22;;;-0.13;65.84
77410;BME280;66481;51.332;22.804;2023-02-03T13:28:03;99208.00;;;-0.11;66.50
77410;BME280;66481;51.332;22.804;2023-02-03T13:41:08;99171.94;;;-0.20;67.59
77410;BME280;66481;51.332;22.804;2023-02-03T13:49:24;99159.91;;;-0.23;68.30
77410;BME280;66481;51.332;22.804;2023-02-03T13:53:32;99158.13;;;-0.21;68.21
77410;BME280;66481;51.332;22.804;2023-02-03T13:57:36;99146.31;;;-0.29;66.73
77410;BME280;66481;51.332;22.804;2023-02-03T14:01:41;99135.09;;;-0.31;67.69
77410;BME280;66481;51.332;22.804;2023-02-03T14:05:45;99133.44;;;-0.32;68.12
77410;BME280;66481;51.332;22.804;2023-02-03T14:18:34;99111.31;;;-0.43;70.63
77410;BME280;66481;51.332;22.804;2023-02-03T14:22:44;99108.91;;;-0.49;71.30
77410;BME280;66481;51.332;22.804;2023-02-03T14:26:49;99102.84;;;-0.48;70.02
77410;BME280;66481;51.332;22.804;2023-02-03T14:31:05;99098.47;;;-0.47;70.73
77410;BME280;66481;51.332;22.804;2023-02-03T14:35:28;99077.06;;;-0.54;71.76
77410;BME280;66481;51.332;22.804;2023-02-03T14:43:44;99053.84;;;-0.57;72.78
77410;BME280;66481;51.332;22.804;2023-02-03T15:00:33;99001.00;;;-0.58;71.45
77410;BME280;66481;51.332;22.804;2023-02-03T15:04:36;98999.25;;;-0.57;71.56
77410;BME280;66481;51.332;22.804;2023-02-03T15:08:45;98989.72;;;-0.57;70.73
77410;BME280;66481;51.332;22.804;2023-02-03T15:12:52;98977.94;;;-0.65;73.45
77410;BME280;66481;51.332;22.804;2023-02-03T15:17:02;98977.00;;;-0.64;72.83
77410;BME280;66481;51.332;22.804;2023-02-03T15:21:04;98962.34;;;-0.65;72.01
77410;BME280;66481;51.332;22.804;2023-02-03T15:25:16;98958.09;;;-0.68;72.82
77410;BME280;66481;51.332;22.804;2023-02-03T15:29:27;98949.59;;;-0.71;74.10
77410;BME280;66481;51.332;22.804;2023-02-03T15:33:29;98954.72;;;-0.70;73.65
77410;BME280;66481;51.332;22.804;2023-02-03T15:41:33;98935.16;;;-0.79;75.28
77410;BME280;66481;51.332;22.804;2023-02-03T15:45:43;98935.03;;;-0.76;74.17
77410;BME280;66481;51.332;22.804;2023-02-03T15:49:56;98932.34;;;-0.72;73.95
77410;BME280;66481;51.332;22.804;2023-02-03T15:58:23;98926.31;;;-0.74;74.56
77410;BME280;66481;51.332;22.804;2023-02-03T16:02:31;98912.34;;;-0.70;74.59
77410;BME280;66481;51.332;22.804;2023-02-03T16:06:35;98903.75;;;-0.72;75.16
77410;BME280;66481;51.332;22.804;2023-02-03T16:10:44;98900.19;;;-0.70;74.77
77410;BME280;66481;51.332;22.804;2023-02-03T16:14:45;98888.94;;;-0.70;75.74
77410;BME280;66481;51.332;22.804;2023-02-03T16:18:53;98888.13;;;-0.71;76.12
77410;BME280;66481;51.332;22.804;2023-02-03T16:31:25;98869.78;;;-0.68;76.26
77410;BME280;66481;51.332;22.804;2023-02-03T16:35:44;98874.91;;;-0.66;75.89
77410;BME280;66481;51.332;22.804;2023-02-03T16:40:04;98857.78;;;-0.70;75.95
77410;BME280;66481;51.332;22.804;2023-02-03T16:44:24;98865.44;;;-0.67;76.11
77410;BME280;66481;51.332;22.804;2023-02-03T16:48:44;98848.09;;;-0.67;75.05
77410;BME280;66481;51.332;22.804;2023-02-03T16:53:04;98843.09;;;-0.71;75.65
77410;BME280;66481;51.332;22.804;2023-02-03T16:57:06;98844.72;;;-0.69;75.54
77410;BME280;66481;51.332;22.804;2023-02-03T17:01:07;98843.81;;;-0.68;76.13
77410;BME280;66481;51.332;22.804;2023-02-03T17:05:09;98843.16;;;-0.73;76.43
77410;BME280;66481;51.332;22.804;2023-02-03T17:20:03;98811.53;;;-1.03;80.76
77410;BME280;66481;51.332;22.804;2023-02-03T17:24:04;98810.22;;;-1.14;82.76
77410;BME280;66481;51.332;22.804;2023-02-03T17:28:07;98805.19;;;-1.18;82.78
77410;BME280;66481;51.332;22.804;2023-02-03T17:32:11;98792.59;;;-1.27;83.68
77410;BME280;66481;51.332;22.804;2023-02-03T17:36:17;98792.72;;;-1.30;83.92
77410;BME280;66481;51.332;22.804;2023-02-03T17:40:20;98790.19;;;-1.32;85.12
77410;BME280;66481;51.332;22.804;2023-02-03T17:44:21;98774.22;;;-1.43;85.38
77410;BME280;66481;51.332;22.804;2023-02-03T17:48:22;98782.34;;;-1.53;86.55
77410;BME280;66481;51.332;22.804;2023-02-03T17:52:24;98758.09;;;-1.52;86.75
77410;BME280;66481;51.332;22.804;2023-02-03T17:56:26;98759.44;;;-1.63;87.77
77410;BME280;66481;51.332;22.804;2023-02-03T18:00:27;98758.66;;;-1.65;88.15
77410;BME280;66481;51.332;22.804;2023-02-03T18:04:29;98743.25;;;-1.70;88.98
77410;BME280;66481;51.332;22.804;2023-02-03T18:08:30;98752.84;;;-1.72;89.00
77410;BME280;66481;51.332;22.804;2023-02-03T18:12:31;98753.91;;;-1.76;90.04
77410;BME280;66481;51.332;22.804;2023-02-03T18:16:33;98759.97;;;-1.77;90.50
77410;BME280;66481;51.332;22.804;2023-02-03T18:20:36;98753.94;;;-1.78;90.53
77410;BME280;66481;51.332;22.804;2023-02-03T18:24:37;98739.28;;;-1.79;90.71
77410;BME280;66481;51.332;22.804;2023-02-03T18:28:40;98738.44;;;-1.79;90.74
77410;BME280;66481;51.332;22.804;2023-02-03T18:32:41;98748.69;;;-1.76;90.75
77410;BME280;66481;51.332;22.804;2023-02-03T18:36:42;98739.13;;;-1.74;91.13
77410;BME280;66481;51.332;22.804;2023-02-03T18:40:44;98748.66;;;-1.75;90.69
77410;BME280;66481;51.332;22.804;2023-02-03T18:44:45;98748.50;;;-1.72;90.62
77410;BME280;66481;51.332;22.804;2023-02-03T18:48:46;98735.59;;;-1.73;90.79
77410;BME280;66481;51.332;22.804;2023-02-03T18:52:52;98734.66;;;-1.71;91.09
77410;BME280;66481;51.332;22.804;2023-02-03T18:56:53;98732.66;;;-1.64;90.74
77410;BME280;66481;51.332;22.804;2023-02-03T19:00:54;98719.97;;;-1.72;91.08
77410;BME280;66481;51.332;22.804;2023-02-03T19:04:56;98733.56;;;-1.65;90.71
77410;BME280;66481;51.332;22.804;2023-02-03T19:08:58;98718.97;;;-1.67;91.13
77410;BME280;66481;51.332;22.804;2023-02-03T19:13:00;98715.50;;;-1.68;91.42
77410;BME280;66481;51.332;22.804;2023-02-03T19:17:02;98730.13;;;-1.65;91.00
77410;BME280;66481;51.332;22.804;2023-02-03T19:21:06;98711.13;;;-1.66;92.10
77410;BME280;66481;51.332;22.804;2023-02-03T19:29:19;98706.22;;;-1.74;91.93
77410;BME280;66481;51.332;22.804;2023-02-03T19:33:27;98711.25;;;-1.69;91.42
77410;BME280;66481;51.332;22.804;2023-02-03T19:37:29;98721.50;;;-1.66;91.60
77410;BME280;66481;51.332;22.804;2023-02-03T19:41:30;98712.41;;;-1.76;91.85
77410;BME280;66481;51.332;22.804;2023-02-03T19:45:34;98720.53;;;-1.63;91.02
77410;BME280;66481;51.332;22.804;2023-02-03T19:49:37;98718.91;;;-1.66;91.75
77410;BME280;66481;51.332;22.804;2023-02-03T19:53:38;98721.44;;;-1.64;91.00
77410;BME280;66481;51.332;22.804;2023-02-03T19:57:40;98719.56;;;-1.61;90.87
77410;BME280;66481;51.332;22.804;2023-02-03T20:01:41;98713.66;;;-1.64;91.47
77410;BME280;66481;51.332;22.804;2023-02-03T20:05:42;98720.22;;;-1.56;90.58
77410;BME280;66481;51.332;22.804;2023-02-03T20:09:44;98720.41;;;-1.60;90.53
77410;BME280;66481;51.332;22.804;2023-02-03T20:13:46;98721.31;;;-1.61;91.10
77410;BME280;66481;51.332;22.804;2023-02-03T20:17:47;98709.09;;;-1.59;90.64
77410;BME280;66481;51.332;22.804;2023-02-03T20:21:49;98716.88;;;-1.59;90.77
77410;BME280;66481;51.332;22.804;2023-02-03T20:25:51;98711.69;;;-1.59;90.95
77410;BME280;66481;51.332;22.804;2023-02-03T20:29:53;98697.97;;;-1.61;90.71
77410;BME280;66481;51.332;22.804;2023-02-03T20:33:55;98688.44;;;-1.61;90.43
77410;BME280;66481;51.332;22.804;2023-02-03T20:37:56;98683.31;;;-1.62;90.85
77410;BME280;66481;51.332;22.804;2023-02-03T20:41:57;98677.97;;;-1.59;90.42
77410;BME280;66481;51.332;22.804;2023-02-03T20:45:59;98683.13;;;-1.58;90.64
77410;BME280;66481;51.332;22.804;2023-02-03T20:50:00;98684.94;;;-1.60;90.79
77410;BME280;66481;51.332;22.804;2023-02-03T20:54:09;98691.69;;;-1.56;90.60
77410;BME280;66481;51.332;22.804;2023-02-03T20:58:19;98676.38;;;-1.62;90.90
77410;BME280;66481;51.332;22.804;2023-02-03T21:02:23;98687.47;;;-1.58;90.63
77410;BME280;66481;51.332;22.804;2023-02-03T21:06:34;98679.69;;;-1.58;90.22
77410;BME280;66481;51.332;22.804;2023-02-03T21:10:36;98679.50;;;-1.54;90.51
77410;BME280;66481;51.332;22.804;2023-02-03T21:14:43;98676.31;;;-1.60;90.48
77410;BME280;66481;51.332;22.804;2023-02-03T21:18:53;98687.28;;;-1.54;90.05
77410;BME280;66481;51.332;22.804;2023-02-03T21:22:55;98685.66;;;-1.56;90.10
77410;BME280;66481;51.332;22.804;2023-02-03T21:26:59;98690.06;;;-1.58;90.39
77410;BME280;66481;51.332;22.804;2023-02-03T21:31:00;98675.59;;;-1.64;90.50
77410;BME280;66481;51.332;22.804;2023-02-03T21:39:36;98678.97;;;-1.62;91.19
77410;BME280;66481;51.332;22.804;2023-02-03T21:43:39;98680.53;;;-1.58;90.99
77410;BME280;66481;51.332;22.804;2023-02-03T21:47:43;98706.41;;;-1.56;91.01
77410;BME280;66481;51.332;22.804;2023-02-03T21:51:45;98685.91;;;-1.62;91.37
77410;BME280;66481;51.332;22.804;2023-02-03T21:55:46;98684.03;;;-1.59;91.30
77410;BME280;66481;51.332;22.804;2023-02-03T21:59:48;98688.25;;;-1.56;91.37
77410;BME280;66481;51.332;22.804;2023-02-03T22:03:53;98698.63;;;-1.56;91.52
77410;BME280;66481;51.332;22.804;2023-02-03T22:07:55;98707.31;;;-1.57;91.51
77410;BME280;66481;51.332;22.804;2023-02-03T22:11:57;98717.81;;;-1.60;91.84
77410;BME280;66481;51.332;22.804;2023-02-03T22:15:59;98706.59;;;-1.61;91.97
77410;BME280;66481;51.332;22.804;2023-02-03T22:20:01;98716.16;;;-1.63;92.73
77410;BME280;66481;51.332;22.804;2023-02-03T22:24:03;98718.03;;;-1.66;92.40
77410;BME280;66481;51.332;22.804;2023-02-03T22:28:05;98732.72;;;-1.65;92.19
77410;BME280;66481;51.332;22.804;2023-02-03T22:32:06;98736.91;;;-1.63;92.02
77410;BME280;66481;51.332;22.804;2023-02-03T22:36:09;98735.44;;;-1.68;92.24
77410;BME280;66481;51.332;22.804;2023-02-03T22:40:12;98732.09;;;-1.72;92.06
77410;BME280;66481;51.332;22.804;2023-02-03T22:44:13;98721.78;;;-1.74;92.58
77410;BME280;66481;51.332;22.804;2023-02-03T22:48:17;98721.13;;;-1.79;92.46
77410;BME280;66481;51.332;22.804;2023-02-03T22:52:19;98731.28;;;-1.73;92.52
77410;BME280;66481;51.332;22.804;2023-02-03T22:56:20;98727.03;;;-1.75;91.78
77410;BME280;66481;51.332;22.804;2023-02-03T23:00:23;98721.97;;;-1.78;92.45
77410;BME280;66481;51.332;22.804;2023-02-03T23:04:24;98734.03;;;-1.77;92.25
77410;BME280;66481;51.332;22.804;2023-02-03T23:08:26;98720.47;;;-1.84;92.48
77410;BME280;66481;51.332;22.804;2023-02-03T23:12:27;98717.75;;;-1.81;92.07
77410;BME280;66481;51.332;22.804;2023-02-03T23:16:28;98733.19;;;-1.78;92.06
77410;BME280;66481;51.332;22.804;2023-02-03T23:20:29;98734.88;;;-1.77;92.19
77410;BME280;66481;51.332;22.804;2023-02-03T23:24:31;98739.88;;;-1.72;91.48
77410;BME280;66481;51.332;22.804;2023-02-03T23:28:32;98735.59;;;-1.73;92.40
77410;BME280;66481;51.332;22.804;2023-02-03T23:32:33;98731.34;;;-1.74;91.93
77410;BME280;66481;51.332;22.804;2023-02-03T23:36:34;98721.19;;;-1.80;92.07
77410;BME280;66481;51.332;22.804;2023-02-03T23:40:36;98718.66;;;-1.82;91.81
77410;BME280;66481;51.332;22.804;2023-02-03T23:44:37;98721.25;;;-1.82;92.27
77410;BME280;66481;51.332;22.804;2023-02-03T23:48:38;98744.56;;;-1.82;92.37
77410;BME280;66481;51.332;22.804;2023-02-03T23:52:39;98753.91;;;-1.76;92.05
77410;BME280;66481;51.332;22.804;2023-02-03T23:56:40;98764.22;;;-1.75;91.89
